Time;durP1;ratioP1;P1;durP2;ratioP2;P2;SDS_P1;SDS_P2;PMS_P1;PMS_P2;Temp;Humidity;BMP_temperature;BMP_pressure;BME280_temperature;BME280_humidity;BME280_pressure;Samples;Min_cycle;Max_cycle;Signal;HPM_P1;HPM_P2
2023/02/13 00:01:24;;;;;;;12.30;6.60;;;;;;;-2.79;69.38;103207.30;107488;1254;112215;-61
2023/02/13 00:03:53;;;;;;;11.30;6.90;;;;;;;-2.80;68.88;103210.27;107566;1254;110025;-62
2023/02/13 00:06:22;;;;;;;16.20;6.60;;;;;;;-2.81;68.50;103216.58;107539;1254;107609;-61
2023/02/13 00:08:51;;;;;;;13.70;6.80;;;;;;;-2.84;68.77;103212.89;107599;1254;97935;-60
2023/02/13 00:11:20;;;;;;;17.60;7.50;;;;;;;-2.87;68.76;103203.91;107574;1254;97831;-61
2023/02/13 00:13:49;;;;;;;16.40;7.40;;;;;;;-2.88;68.66;103197.40;107551;1258;111418;-61
2023/02/13 00:16:17;;;;;;;16.20;7.60;;;;;;;-2.89;68.58;103193.86;107568;1253;108933;-62
2023/02/13 00:18:45;;;;;;;17.40;6.40;;;;;;;-2.92;68.42;103184.73;107507;1253;108488;-61
2023/02/13 00:21:13;;;;;;;12.20;6.40;;;;;;;-2.94;68.54;103192.60;107554;1253;97901;-60
2023/02/13 00:23:42;;;;;;;19.90;7.70;;;;;;;-2.97;68.45;103197.16;107517;1259;97829;-62
2023/02/13 00:26:13;;;;;;;19.20;7.50;;;;;;;-2.99;68.79;103202.41;107545;1253;112029;-62
2023/02/13 00:28:44;;;;;;;18.50;7.70;;;;;;;-3.02;68.58;103199.05;107551;1253;109829;-62
2023/02/13 00:31:17;;;;;;;15.80;8.00;;;;;;;-3.04;67.97;103201.14;107525;1253;108536;-61
2023/02/13 00:33:48;;;;;;;18.60;7.50;;;;;;;-3.06;67.84;103203.41;107542;1253;97723;-61
2023/02/13 00:36:19;;;;;;;16.60;8.00;;;;;;;-3.09;68.46;103196.89;107572;1254;97730;-61
2023/02/13 00:38:47;;;;;;;13.80;8.80;;;;;;;-3.11;68.77;103195.98;107544;1254;112772;-62
2023/02/13 00:41:16;;;;;;;18.50;9.90;;;;;;;-3.10;68.46;103195.83;107540;1254;109241;-60
2023/02/13 00:43:46;;;;;;;28.60;8.90;;;;;;;-3.10;69.18;103195.30;107547;1254;109313;-61
2023/02/13 00:46:16;;;;;;;18.20;8.80;;;;;;;-3.10;69.15;103198.47;107583;1254;97758;-62
2023/02/13 00:48:45;;;;;;;21.60;8.90;;;;;;;-3.09;69.39;103193.20;107606;1254;97899;-61
2023/02/13 00:51:13;;;;;;;18.50;8.70;;;;;;;-3.06;69.54;103186.91;107699;1254;112263;-61
2023/02/13 00:53:42;;;;;;;21.60;9.00;;;;;;;-3.04;69.36;103191.83;107656;1253;110269;-62
2023/02/13 00:56:10;;;;;;;18.50;9.80;;;;;;;-2.98;69.42;103188.71;107598;1254;109350;-60
2023/02/13 00:58:39;;;;;;;22.10;8.90;;;;;;;-2.94;69.28;103194.20;107670;1254;98085;-63
2023/02/13 01:01:08;;;;;;;17.90;8.70;;;;;;;-2.94;69.38;103190.86;107679;1254;98385;-60
2023/02/13 01:03:36;;;;;;;21.80;9.30;;;;;;;-2.96;69.49;103192.42;107637;1252;111910;-61
2023/02/13 01:06:06;;;;;;;22.60;9.40;;;;;;;-2.95;69.50;103190.48;107646;1254;110078;-62
2023/02/13 01:08:38;;;;;;;23.80;11.20;;;;;;;-2.92;69.53;103187.88;107670;1254;107863;-60
2023/02/13 01:11:07;;;;;;;16.80;8.40;;;;;;;-2.88;69.67;103182.12;107687;1254;97825;-60
2023/02/13 01:13:36;;;;;;;23.60;11.70;;;;;;;-2.81;69.90;103182.33;107665;1254;97828;-61
2023/02/13 01:16:06;;;;;;;12.00;6.90;;;;;;;-2.74;69.43;103177.98;107649;1255;112209;-62
2023/02/13 01:18:34;;;;;;;20.20;9.20;;;;;;;-2.72;69.62;103180.27;107646;1255;109751;-61
2023/02/13 01:21:05;;;;;;;20.60;8.90;;;;;;;-2.73;69.46;103179.56;107633;1253;108586;-62
2023/02/13 01:23:37;;;;;;;18.50;9.00;;;;;;;-2.75;69.29;103181.85;107660;1255;97835;-60
2023/02/13 01:26:08;;;;;;;17.00;8.40;;;;;;;-2.79;69.20;103179.70;107613;1254;98363;-61
2023/02/13 01:28:36;;;;;;;18.90;8.30;;;;;;;-2.80;68.86;103181.27;107642;1255;111460;-60
2023/02/13 01:31:05;;;;;;;21.10;8.00;;;;;;;-2.80;69.12;103187.79;107673;1255;109976;-61
2023/02/13 01:33:34;;;;;;;19.60;8.10;;;;;;;-2.80;68.83;103194.46;107685;1254;106977;-61
2023/02/13 01:36:12;;;;;;;24.00;8.40;;;;;;;-2.86;69.06;103187.23;107639;1256;97845;-60
2023/02/13 01:38:41;;;;;;;25.10;9.90;;;;;;;-2.86;69.11;103182.14;107637;1256;97858;-61
2023/02/13 01:41:10;;;;;;;24.00;8.80;;;;;;;-2.86;69.39;103183.71;107676;1254;112040;-60
2023/02/13 01:43:44;;;;;;;16.60;8.80;;;;;;;-2.87;69.22;103173.34;107691;1255;109686;-60
2023/02/13 01:46:15;;;;;;;;;;;;;;;-2.92;69.76;103175.07;107668;1256;108569;-60
2023/02/13 01:48:45;;;;;;;33.30;10.10;;;;;;;-2.99;70.15;103170.80;107601;1256;97833;-62
2023/02/13 01:51:20;;;;;;;25.80;10.40;;;;;;;-3.04;70.14;103166.91;107682;1254;98427;-59
2023/02/13 01:54:01;;;;;;;22.90;9.00;;;;;;;-3.08;69.86;103163.89;107670;1254;111817;-59
2023/02/13 01:56:42;;;;;;;24.40;9.00;;;;;;;-3.10;70.20;103163.71;107702;1252;109462;-59
2023/02/13 01:59:19;;;;;;;19.50;9.80;;;;;;;-3.11;70.88;103164.40;107564;1254;107609;-60
2023/02/13 02:01:48;;;;;;;18.90;8.90;;;;;;;-3.14;70.62;103160.16;107568;1254;97850;-60
2023/02/13 02:04:27;;;;;;;17.70;8.80;;;;;;;-3.21;71.17;103160.83;107686;1254;97711;-61
2023/02/13 02:07:00;;;;;;;21.60;10.60;;;;;;;-3.31;71.70;103164.61;107622;1255;112289;-60
2023/02/13 02:09:36;;;;;;;24.40;9.60;;;;;;;-3.38;72.28;103162.45;107642;1255;109368;-60
2023/02/13 02:12:32;;;;;;;24.10;10.80;;;;;;;-3.44;72.37;103160.81;107576;1254;108727;-61
2023/02/13 02:15:02;;;;;;;25.80;11.70;;;;;;;-3.47;72.23;103165.18;107643;1255;97951;-60
2023/02/13 02:17:32;;;;;;;22.00;10.10;;;;;;;-3.48;72.40;103162.88;107672;1254;97924;-61
2023/02/13 02:20:16;;;;;;;20.60;11.00;;;;;;;-3.48;72.47;103163.92;107594;1254;111750;-61
2023/02/13 02:23:14;;;;;;;21.10;10.20;;;;;;;-3.47;72.24;103162.73;107604;1254;110081;-60
2023/02/13 02:26:08;;;;;;;22.70;10.00;;;;;;;-3.44;72.01;103153.96;107631;1253;108680;-62
2023/02/13 02:29:05;;;;;;;18.90;9.30;;;;;;;-3.39;71.97;103156.64;107645;1254;97831;-61
2023/02/13 02:31:36;;;;;;;17.20;9.80;;;;;;;-3.35;72.04;103149.66;107657;1254;98466;-61
2023/02/13 02:34:28;;;;;;;22.40;9.10;;;;;;;-3.29;71.99;103148.47;107638;1255;112235;-62
2023/02/13 02:37:19;;;;;;;18.80;9.70;;;;;;;-3.26;72.12;103146.55;107460;1255;109317;-61
2023/02/13 02:39:53;;;;;;;25.30;9.20;;;;;;;-3.25;71.69;103147.62;107583;1254;108792;-61
2023/02/13 02:42:41;;;;;;;22.40;9.60;;;;;;;-3.22;71.68;103148.88;107455;1254;97754;-61
2023/02/13 02:45:21;;;;;;;21.20;9.90;;;;;;;-3.17;71.78;103157.52;107578;1257;97804;-60
2023/02/13 02:51:19;;;;;;;20.30;9.60;;;;;;;-3.10;71.42;103158.27;107568;1256;110197;-61
2023/02/13 02:57:05;;;;;;;22.40;9.50;;;;;;;-3.12;70.98;103154.03;107566;1256;97853;-60
2023/02/13 03:13:17;;;;;;;18.50;10.10;;;;;;;-3.31;70.19;103167.41;107559;1256;108423;-62
2023/02/13 03:14:03;;;;;;;24.00;11.30;;;;;;;-3.53;69.84;103170.38;107350;1256;98388;-61
2023/02/13 03:22:34;;;;;;;32.40;12.50;;;;;;;-3.87;70.06;103163.56;107550;1254;107886;-60
2023/02/13 03:25:33;;;;;;;19.30;10.60;;;;;;;-3.89;70.25;103162.84;107582;1256;97854;-61
2023/02/13 03:31:22;;;;;;;21.30;10.50;;;;;;;-3.99;70.95;103157.48;107590;1254;111313;-61
2023/02/13 03:34:04;;;;;;;20.40;10.40;;;;;;;-4.05;70.45;103155.67;107596;1257;109309;-60
2023/02/13 03:39:58;;;;;;;24.50;10.30;;;;;;;-4.12;71.45;103161.55;107621;1255;97825;-61
2023/02/13 03:42:26;;;;;;;;;;;;;;;-4.13;71.57;103162.06;107548;1254;97979;-61
2023/02/13 03:47:55;;;;;;;20.50;10.10;;;;;;;-4.13;70.78;103160.30;107658;1254;109970;-60
2023/02/13 03:50:26;;;;;;;23.60;10.70;;;;;;;-4.12;71.20;103161.73;107624;1257;108157;-64
2023/02/13 03:53:06;;;;;;;22.30;11.10;;;;;;;-4.07;71.89;103166.86;107652;1257;97823;-62
2023/02/13 04:01:31;;;;;;;25.30;12.10;;;;;;;-3.91;72.54;103173.89;107602;1257;109213;-61
2023/02/13 04:04:18;;;;;;;26.40;11.10;;;;;;;-3.90;73.00;103173.52;107650;1254;108665;-61
2023/02/13 04:06:53;;;;;;;22.30;11.20;;;;;;;-3.90;72.95;103171.61;107601;1257;98407;-62
2023/02/13 04:09:27;;;;;;;24.10;11.70;;;;;;;-3.89;72.63;103170.02;107671;1252;97748;-61
2023/02/13 04:12:05;;;;;;;29.60;11.30;;;;;;;-3.85;72.47;103170.23;107617;1254;111480;-63
2023/02/13 04:14:39;;;;;;;26.50;11.30;;;;;;;-3.80;72.01;103175.91;107691;1254;109137;-61
2023/02/13 04:17:55;;;;;;;24.10;12.40;;;;;;;-3.76;72.32;103177.71;107625;1256;108736;-61
2023/02/13 04:20:27;;;;;;;19.70;10.90;;;;;;;-3.72;72.10;103172.65;107580;1255;97829;-62
2023/02/13 04:22:55;;;;;;;21.10;11.50;;;;;;;-3.71;72.05;103168.45;107644;1254;98504;-62
2023/02/13 04:25:24;;;;;;;21.70;10.80;;;;;;;-3.69;72.38;103170.77;107674;1254;112082;-62
2023/02/13 04:27:52;;;;;;;29.50;10.70;;;;;;;-3.65;72.57;103175.55;107637;1254;109928;-61
2023/02/13 04:30:20;;;;;;;20.30;11.00;;;;;;;-3.61;72.47;103171.35;107640;1254;108810;-62
2023/02/13 04:32:50;;;;;;;21.50;10.50;;;;;;;-3.57;72.73;103171.06;107633;1254;97835;-62
2023/02/13 04:35:19;;;;;;;22.30;11.30;;;;;;;-3.52;72.83;103169.34;107498;1254;97921;-62
2023/02/13 04:37:47;;;;;;;22.00;11.50;;;;;;;-3.52;72.03;103168.46;107654;1251;112142;-61
2023/02/13 04:40:17;;;;;;;23.00;11.40;;;;;;;-3.52;72.33;103165.13;107702;1251;109979;-61
2023/02/13 04:42:49;;;;;;;22.90;11.60;;;;;;;-3.53;72.15;103165.30;107649;1251;107584;-62
2023/02/13 04:45:17;;;;;;;24.00;12.30;;;;;;;-3.53;71.81;103167.74;107671;1251;97847;-60
2023/02/13 04:47:51;;;;;;;26.30;12.00;;;;;;;-3.54;71.94;103167.39;107675;1251;97806;-61
2023/02/13 04:50:20;;;;;;;33.80;16.00;;;;;;;-3.53;71.97;103167.56;107722;1254;111220;-62
2023/02/13 04:52:54;;;;;;;26.90;11.60;;;;;;;-3.52;71.87;103168.82;107665;1251;110047;-65
2023/02/13 04:55:24;;;;;;;26.20;11.60;;;;;;;-3.50;71.61;103165.50;107654;1254;107378;-63
2023/02/13 04:57:54;;;;;;;24.10;11.60;;;;;;;-3.48;71.60;103163.05;107627;1253;97831;-62
2023/02/13 05:00:25;;;;;;;41.80;16.70;;;;;;;-3.50;71.45;103165.15;107656;1251;98463;-62
2023/02/13 05:03:03;;;;;;;28.30;12.80;;;;;;;-3.52;71.37;103161.79;107645;1254;112132;-62
2023/02/13 05:05:31;;;;;;;43.70;13.10;;;;;;;-3.55;71.45;103165.63;107680;1254;109487;-61
2023/02/13 05:08:00;;;;;;;49.20;13.50;;;;;;;-3.57;71.33;103163.15;107667;1254;108226;-61
2023/02/13 05:10:29;;;;;;;21.10;11.50;;;;;;;-3.60;71.29;103156.64;107665;1256;97832;-62
2023/02/13 05:12:58;;;;;;;25.10;12.60;;;;;;;-3.64;71.13;103154.16;107743;1254;98465;-62
2023/02/13 05:15:26;;;;;;;22.80;12.20;;;;;;;-3.66;71.01;103158.52;107631;1254;112111;-63
2023/02/13 05:17:54;;;;;;;22.80;11.60;;;;;;;-3.70;71.39;103160.23;107681;1254;109988;-61
2023/02/13 05:20:23;;;;;;;21.00;11.80;;;;;;;-3.78;71.63;103161.02;107676;1256;108124;-61
2023/02/13 05:25:40;;;;;;;22.00;12.40;;;;;;;-3.91;72.58;103161.95;107626;1254;97834;-61
2023/02/13 05:29:17;;;;;;;26.80;13.60;;;;;;;-3.95;72.57;103159.81;107638;1256;111501;-61
2023/02/13 05:30:57;;;;;;;26.30;14.20;;;;;;;-3.95;72.29;103157.88;107704;1254;108530;-63
2023/02/13 05:33:26;;;;;;;30.70;13.20;;;;;;;-3.91;72.34;103159.48;107656;1251;107772;-61
2023/02/13 05:35:55;;;;;;;24.30;12.50;;;;;;;-3.87;73.06;103163.73;107562;1251;97870;-61
2023/02/13 05:38:23;;;;;;;25.50;12.80;;;;;;;-3.84;72.76;103162.89;107666;1256;98360;-62
2023/02/13 05:40:51;;;;;;;21.80;12.70;;;;;;;-3.82;72.62;103164.31;107675;1251;111044;-62
2023/02/13 05:43:20;;;;;;;31.10;13.00;;;;;;;-3.77;72.85;103166.48;107634;1254;109636;-60
2023/02/13 05:45:48;;;;;;;24.50;12.80;;;;;;;-3.70;72.64;103166.73;107671;1251;109599;-60
2023/02/13 05:48:17;;;;;;;31.20;15.70;;;;;;;-3.60;73.04;103165.40;107613;1252;97817;-61
2023/02/13 05:50:46;;;;;;;25.10;12.50;;;;;;;-3.44;73.04;103164.48;107652;1254;97826;-62
2023/02/13 05:53:15;;;;;;;29.30;13.20;;;;;;;-3.33;72.90;103166.88;107693;1254;111742;-61
2023/02/13 05:55:43;;;;;;;30.40;13.10;;;;;;;-3.21;73.12;103158.53;107694;1254;109676;-63
2023/02/13 05:58:12;;;;;;;25.70;13.70;;;;;;;-3.12;72.94;103157.02;107603;1251;108212;-62
2023/02/13 06:00:40;;;;;;;26.90;12.40;;;;;;;-3.03;72.74;103156.39;107666;1254;97869;-62
2023/02/13 06:03:09;;;;;;;36.00;12.70;;;;;;;-3.00;72.44;103158.49;107582;1253;97890;-61
2023/02/13 06:05:37;;;;;;;21.40;12.20;;;;;;;-3.02;72.08;103154.81;107660;1256;109990;-62
2023/02/13 06:08:05;;;;;;;22.70;11.00;;;;;;;-3.06;71.91;103157.59;107667;1251;109747;-62
2023/02/13 06:10:34;;;;;;;21.60;12.90;;;;;;;-3.08;71.72;103161.79;107631;1251;108188;-61
2023/02/13 06:13:02;;;;;;;27.20;12.40;;;;;;;-3.10;71.80;103154.92;107686;1251;97844;-62
2023/02/13 06:15:31;;;;;;;24.70;11.80;;;;;;;-3.11;72.42;103155.27;107712;1251;98368;-61
2023/02/13 06:18:00;;;;;;;27.60;13.90;;;;;;;-3.12;72.48;103149.11;107684;1251;111392;-62
2023/02/13 06:20:28;;;;;;;25.90;13.60;;;;;;;-3.10;72.25;103156.86;107654;1251;109602;-60
2023/02/13 06:22:57;;;;;;;24.90;13.90;;;;;;;-3.10;72.19;103154.58;107669;1256;108093;-60
2023/02/13 06:25:25;;;;;;;21.60;12.60;;;;;;;-3.07;72.37;103157.41;107642;1251;97844;-61
2023/02/13 06:27:54;;;;;;;30.20;14.40;;;;;;;-3.04;72.07;103162.34;107690;1251;97883;-60
2023/02/13 06:30:22;;;;;;;26.80;13.40;;;;;;;-3.04;71.69;103158.48;107688;1251;111660;-61
2023/02/13 06:32:51;;;;;;;27.90;13.90;;;;;;;-3.04;71.88;103156.72;107675;1251;110918;-62
2023/02/13 06:35:20;;;;;;;25.10;14.20;;;;;;;-3.02;72.10;103155.16;107663;1251;107614;-60
2023/02/13 06:37:48;;;;;;;27.00;14.50;;;;;;;-2.98;72.02;103151.67;107660;1251;97825;-62
2023/02/13 06:40:17;;;;;;;24.70;12.70;;;;;;;-2.95;71.75;103148.17;107644;1254;97733;-62
2023/02/13 06:42:46;;;;;;;26.90;13.50;;;;;;;-2.93;72.10;103148.73;107709;1251;111432;-63
2023/02/13 06:45:14;;;;;;;28.00;13.80;;;;;;;-2.88;71.86;103143.48;107649;1251;109877;-63
2023/02/13 06:47:44;;;;;;;22.80;12.80;;;;;;;-2.85;71.88;103145.79;107603;1252;108788;-63
2023/02/13 06:50:15;;;;;;;25.70;13.70;;;;;;;-2.79;71.85;103145.64;107705;1251;97835;-64
2023/02/13 06:52:48;;;;;;;21.60;12.00;;;;;;;-2.76;71.83;103148.11;107477;1251;98328;-63
2023/02/13 06:55:19;;;;;;;27.20;12.80;;;;;;;-2.71;71.65;103152.00;107652;1251;111903;-62
2023/02/13 06:57:48;;;;;;;27.80;13.60;;;;;;;-2.63;71.80;103152.93;107651;1251;109004;-61
2023/02/13 07:00:17;;;;;;;23.00;12.00;;;;;;;-2.54;71.85;103151.39;107639;1254;107771;-61
2023/02/13 07:02:46;;;;;;;24.10;14.30;;;;;;;-2.46;71.64;103145.80;107683;1251;97822;-62
2023/02/13 07:05:16;;;;;;;24.10;13.50;;;;;;;-2.39;71.30;103145.83;107668;1257;98367;-61
2023/02/13 07:07:45;;;;;;;25.10;13.50;;;;;;;-2.36;71.29;103144.27;107646;1254;112296;-63
2023/02/13 07:10:13;;;;;;;31.40;14.30;;;;;;;-2.33;71.27;103138.11;107665;1251;109706;-62
2023/02/13 07:12:42;;;;;;;29.30;14.10;;;;;;;-2.28;71.15;103138.83;107670;1254;108533;-63
2023/02/13 07:15:12;;;;;;;31.50;14.80;;;;;;;-2.24;71.08;103132.34;107593;1254;97838;-60
2023/02/13 07:17:41;;;;;;;29.40;13.30;;;;;;;-2.18;71.13;103131.84;107502;1251;97690;-62
2023/02/13 07:20:10;;;;;;;30.40;13.90;;;;;;;-2.11;71.00;103133.97;107633;1254;111742;-62
2023/02/13 07:22:38;;;;;;;29.80;16.60;;;;;;;-2.03;70.93;103135.39;107668;1256;110150;-63
2023/02/13 07:25:07;;;;;;;27.30;14.90;;;;;;;-1.94;70.62;103127.14;107663;1252;108167;-60
2023/02/13 07:27:35;;;;;;;31.10;15.80;;;;;;;-1.85;70.75;103126.81;107656;1256;98027;-61
2023/02/13 07:30:05;;;;;;;28.10;14.60;;;;;;;-1.75;70.72;103123.13;107611;1254;97976;-62
2023/02/13 07:32:33;;;;;;;30.50;15.20;;;;;;;-1.65;70.59;103124.02;107519;1254;112239;-62
2023/02/13 07:35:02;;;;;;;31.40;16.40;;;;;;;-1.55;69.94;103118.55;107694;1254;109753;-61
2023/02/13 07:37:30;;;;;;;29.40;15.20;;;;;;;-1.43;70.22;103124.18;107652;1253;107456;-62
2023/02/13 07:39:59;;;;;;;27.70;14.20;;;;;;;-1.33;69.91;103121.18;107675;1254;97728;-60
2023/02/13 07:42:31;;;;;;;26.70;14.10;;;;;;;-1.22;69.29;103117.65;107682;1255;98011;-61
2023/02/13 07:45:00;;;;;;;28.50;14.90;;;;;;;-1.15;69.29;103119.41;107643;1253;112084;-61
2023/02/13 07:47:28;;;;;;;30.20;14.10;;;;;;;-1.08;68.89;103121.69;107677;1254;109188;-60
2023/02/13 07:49:56;;;;;;;25.00;14.70;;;;;;;-1.02;68.68;103119.73;107669;1254;108420;-61
2023/02/13 07:52:25;;;;;;;30.20;15.70;;;;;;;-0.97;68.40;103114.96;107617;1254;97819;-61
2023/02/13 07:54:53;;;;;;;32.10;14.40;;;;;;;-0.90;68.34;103111.78;107596;1254;97957;-61
2023/02/13 07:57:21;;;;;;;29.60;12.80;;;;;;;-0.82;68.44;103112.80;107583;1252;113343;-60
2023/02/13 07:59:50;;;;;;;24.90;14.20;;;;;;;-0.72;68.03;103118.06;107598;1254;108788;-62
2023/02/13 08:02:18;;;;;;;25.20;12.40;;;;;;;-0.63;67.37;103118.20;107592;1254;108144;-60
2023/02/13 08:04:47;;;;;;;22.30;12.70;;;;;;;-0.51;67.11;103105.64;107481;1252;98007;-61
2023/02/13 08:07:17;;;;;;;27.00;12.70;;;;;;;-0.38;67.03;103108.41;107566;1254;97886;-60
2023/02/13 08:12:35;;;;;;;22.70;13.40;;;;;;;-0.09;66.60;103108.07;107587;1251;109779;-61
2023/02/13 08:15:11;;;;;;;26.80;12.20;;;;;;;0.07;66.31;103109.73;107610;1254;108669;-62
2023/02/13 08:17:43;;;;;;;20.90;12.70;;;;;;;0.20;65.88;103107.70;107628;1256;97938;-60
2023/02/13 08:20:11;;;;;;;21.70;12.30;;;;;;;0.33;65.51;103106.89;107678;1254;97731;-61
2023/02/13 08:22:40;;;;;;;23.10;12.70;;;;;;;0.48;65.20;103105.89;107695;1252;112145;-60
2023/02/13 08:25:08;;;;;;;23.30;12.00;;;;;;;0.65;64.98;103103.96;107678;1251;109868;-62
2023/02/13 08:27:37;;;;;;;26.10;12.10;;;;;;;0.80;64.33;103105.77;107672;1251;108758;-61
2023/02/13 08:30:07;;;;;;;20.30;11.90;;;;;;;0.92;63.19;103113.40;107650;1251;97865;-61
2023/02/13 08:32:36;;;;;;;26.20;11.20;;;;;;;1.01;62.47;103112.63;107731;1251;98385;-61
2023/02/13 08:35:25;;;;;;;30.50;14.50;;;;;;;1.11;62.45;103106.33;107676;1255;111848;-60
2023/02/13 08:37:54;;;;;;;25.00;12.20;;;;;;;1.26;62.30;103106.15;107712;1251;109551;-61
2023/02/13 08:40:22;;;;;;;30.40;13.50;;;;;;;1.41;62.26;103103.14;107671;1251;107245;-61
2023/02/13 08:43:01;;;;;;;31.60;16.00;;;;;;;1.58;62.09;103099.39;107673;1251;97703;-62
2023/02/13 08:45:30;;;;;;;20.10;12.20;;;;;;;1.72;62.23;103095.31;107682;1255;97736;-63
2023/02/13 08:47:59;;;;;;;24.60;13.10;;;;;;;1.92;61.90;103088.13;107705;1251;112356;-63
2023/02/13 08:50:27;;;;;;;29.70;12.60;;;;;;;2.08;60.97;103090.88;107727;1253;109353;-61
2023/02/13 08:52:57;;;;;;;24.20;12.80;;;;;;;2.17;60.03;103088.27;107652;1251;108493;-62
2023/02/13 08:55:27;;;;;;;38.10;14.00;;;;;;;2.32;60.20;103072.80;107691;1256;98584;-61
2023/02/13 08:57:57;;;;;;;29.40;14.50;;;;;;;2.58;60.15;103076.08;107736;1255;98465;-62
2023/02/13 09:00:26;;;;;;;34.00;15.30;;;;;;;2.81;59.00;103069.64;107649;1255;112872;-61
2023/02/13 09:03:00;;;;;;;21.90;12.20;;;;;;;3.00;58.34;103061.10;107769;1255;110323;-62
2023/02/13 09:05:30;;;;;;;;;;;;;;;3.28;58.56;103061.97;107666;1251;107100;-62
2023/02/13 09:08:01;;;;;;;24.70;13.90;;;;;;;3.49;57.84;103062.40;107698;1254;97915;-61
2023/02/13 09:10:31;;;;;;;22.40;13.20;;;;;;;3.72;57.69;103054.09;107687;1251;97849;-62
2023/02/13 09:13:02;;;;;;;24.20;13.90;;;;;;;3.96;56.34;103054.92;107667;1253;112705;-61
2023/02/13 09:15:31;;;;;;;19.80;12.60;;;;;;;4.23;56.14;103046.63;107694;1254;109831;-62
2023/02/13 09:18:00;;;;;;;25.70;13.20;;;;;;;4.66;55.01;103046.40;107644;1251;106684;-62
2023/02/13 09:20:28;;;;;;;22.10;13.50;;;;;;;5.30;54.27;103038.17;107672;1254;97825;-61
2023/02/13 09:22:57;;;;;;;23.80;12.70;;;;;;;6.14;52.51;103036.83;107699;1253;98469;-61
2023/02/13 09:25:25;;;;;;;32.10;13.40;;;;;;;6.65;48.56;103027.79;107717;1254;112114;-62
2023/02/13 09:27:54;;;;;;;27.40;14.00;;;;;;;7.11;47.78;103022.89;107666;1251;109250;-61
2023/02/13 09:30:22;;;;;;;21.50;12.50;;;;;;;7.55;46.10;103017.63;107635;1251;107763;-60
2023/02/13 09:32:53;;;;;;;28.70;12.70;;;;;;;7.81;44.33;103022.11;107650;1254;97849;-61
2023/02/13 09:35:23;;;;;;;17.00;11.40;;;;;;;8.05;43.99;103015.77;107691;1252;98376;-63
2023/02/13 09:37:51;;;;;;;23.50;11.30;;;;;;;8.43;43.74;103010.81;107707;1251;111869;-60
2023/02/13 09:40:22;;;;;;;20.00;10.80;;;;;;;8.98;43.73;103005.88;107726;1253;110696;-62
2023/02/13 09:42:52;;;;;;;22.50;12.90;;;;;;;9.14;43.70;103015.85;107693;1256;108586;-61
2023/02/13 09:45:21;;;;;;;24.70;11.10;;;;;;;9.31;43.33;103004.16;107682;1251;97906;-61
2023/02/13 09:47:49;;;;;;;32.40;14.20;;;;;;;9.21;41.83;103012.88;107704;1251;97697;-60
2023/02/13 09:50:28;;;;;;;15.20;10.80;;;;;;;9.47;42.13;103006.98;107722;1253;110969;-59
2023/02/13 09:52:58;;;;;;;21.80;12.10;;;;;;;9.87;41.75;103008.95;107688;1254;111152;-60
2023/02/13 09:55:39;;;;;;;21.70;12.30;;;;;;;10.29;40.68;103005.64;107674;1252;107224;-62
2023/02/13 09:58:15;;;;;;;23.80;13.00;;;;;;;10.74;40.42;103001.88;107684;1251;97848;-62
2023/02/13 10:00:50;;;;;;;26.00;13.60;;;;;;;11.01;38.51;103004.52;107759;1251;97733;-62
2023/02/13 10:03:27;;;;;;;28.70;13.80;;;;;;;11.17;38.06;102998.83;107749;1251;111672;-63
2023/02/13 10:06:06;;;;;;;25.90;13.60;;;;;;;11.56;38.82;102999.13;107667;1254;110824;-63
2023/02/13 10:08:53;;;;;;;21.20;11.20;;;;;;;12.22;38.56;102993.73;107713;1251;108245;-62
2023/02/13 10:11:28;;;;;;;20.40;11.10;;;;;;;11.73;37.05;102990.09;107623;1252;97848;-63
2023/02/13 10:14:38;;;;;;;27.10;11.00;;;;;;;11.59;37.96;102979.23;107689;1251;98347;-63
2023/02/13 10:17:18;;;;;;;24.40;14.00;;;;;;;11.82;38.42;102974.29;107390;1251;110448;-62
2023/02/13 10:19:56;;;;;;;17.00;11.00;;;;;;;11.58;36.91;102974.60;107644;1251;109894;-62
2023/02/13 10:22:37;;;;;;;16.60;10.90;;;;;;;11.01;37.64;102965.75;107667;1251;107877;-61
2023/02/13 10:25:13;;;;;;;25.10;11.60;;;;;;;10.77;38.68;102961.84;107652;1251;97851;-61
2023/02/13 10:28:10;;;;;;;17.90;10.10;;;;;;;10.69;39.92;102950.25;107653;1251;97828;-61
2023/02/13 10:30:49;;;;;;;15.50;9.90;;;;;;;11.35;39.45;102941.58;107701;1251;111796;-62
2023/02/13 10:33:25;;;;;;;18.90;11.50;;;;;;;12.00;38.68;102936.38;107716;1251;110239;-63
2023/02/13 10:36:17;;;;;;;19.80;10.20;;;;;;;12.68;38.18;102928.26;107656;1254;108629;-62
2023/02/13 10:38:54;;;;;;;18.70;10.90;;;;;;;13.07;36.72;102921.15;107648;1251;97832;-62
2023/02/13 10:41:49;;;;;;;13.20;8.30;;;;;;;13.24;35.64;102920.20;107682;1251;97831;-62
2023/02/13 10:44:24;;;;;;;14.40;8.10;;;;;;;12.39;35.97;102916.07;107638;1251;111730;-62
2023/02/13 10:47:28;;;;;;;18.00;9.30;;;;;;;11.90;36.99;102917.53;107167;1251;683652;-62
2023/02/13 10:50:15;;;;;;;17.60;9.50;;;;;;;11.41;38.27;102914.45;107686;1251;108121;-63
2023/02/13 10:52:56;;;;;;;34.20;10.40;;;;;;;10.65;39.01;102905.42;107592;1254;97809;-63
2023/02/13 10:55:24;;;;;;;17.00;9.60;;;;;;;10.54;40.00;102908.70;107663;1251;97720;-60
2023/02/13 10:58:57;;;;;;;22.30;11.60;;;;;;;10.27;39.78;102903.48;107658;1251;111485;-62
2023/02/13 11:01:52;;;;;;;18.60;10.40;;;;;;;9.47;40.95;102901.28;107318;1251;110214;-62
2023/02/13 11:04:21;;;;;;;17.10;10.30;;;;;;;9.08;41.85;102894.98;107592;1251;108208;-62
2023/02/13 11:06:58;;;;;;;26.10;10.60;;;;;;;9.15;42.08;102884.95;107665;1251;97833;-63
2023/02/13 11:09:29;;;;;;;14.40;10.30;;;;;;;9.36;42.38;102876.74;107681;1254;97823;-61
2023/02/13 11:11:58;;;;;;;20.60;10.30;;;;;;;9.85;41.84;102873.91;107638;1251;111438;-62
2023/02/13 11:14:27;;;;;;;16.90;9.70;;;;;;;10.70;41.77;102866.76;107656;1255;110135;-62
2023/02/13 11:17:11;;;;;;;15.50;10.30;;;;;;;11.77;41.25;102858.83;107672;1251;108232;-62
2023/02/13 11:19:52;;;;;;;13.90;8.40;;;;;;;13.05;40.38;102846.98;107662;1251;97920;-63
2023/02/13 11:22:34;;;;;;;16.00;9.60;;;;;;;13.67;37.45;102847.08;107692;1251;97877;-62
2023/02/13 11:25:07;;;;;;;14.70;8.70;;;;;;;12.82;36.02;102854.64;107677;1251;112203;-60
2023/02/13 11:27:38;;;;;;;21.20;9.70;;;;;;;12.26;37.90;102843.41;107622;1251;109270;-63
2023/02/13 11:30:30;;;;;;;16.40;9.00;;;;;;;12.73;37.59;102844.56;107615;1251;107526;-62
2023/02/13 11:33:00;;;;;;;19.40;9.60;;;;;;;13.29;36.11;102838.98;107608;1254;97821;-61
2023/02/13 11:35:32;;;;;;;23.60;8.60;;;;;;;13.59;36.47;102829.73;107663;1251;97739;-63
2023/02/13 11:38:09;;;;;;;18.00;9.00;;;;;;;13.46;37.22;102830.10;107644;1255;111063;-63
2023/02/13 11:40:38;;;;;;;14.80;9.30;;;;;;;13.14;37.54;102831.84;107554;1254;110312;-62
2023/02/13 11:43:13;;;;;;;19.90;9.30;;;;;;;12.58;37.36;102832.77;107671;1253;108276;-62
2023/02/13 11:45:42;;;;;;;26.80;10.40;;;;;;;12.00;38.23;102829.38;107637;1254;97841;-61
2023/02/13 11:48:21;;;;;;;20.30;11.40;;;;;;;11.34;38.71;102822.85;107616;1254;97823;-62
2023/02/13 11:50:52;;;;;;;21.10;9.80;;;;;;;10.56;39.93;102819.05;107657;1254;111352;-62
2023/02/13 11:53:25;;;;;;;25.40;11.10;;;;;;;10.12;40.61;102817.70;107656;1254;109999;-62
2023/02/13 11:56:10;;;;;;;24.40;11.10;;;;;;;9.46;42.07;102814.11;107676;1254;108391;-60
2023/02/13 11:58:40;;;;;;;23.70;11.40;;;;;;;8.57;43.88;102817.04;107664;1253;97841;-61
2023/02/13 12:01:20;;;;;;;21.80;11.90;;;;;;;8.04;45.17;102807.45;107671;1253;97815;-61
2023/02/13 12:04:05;;;;;;;22.20;11.90;;;;;;;7.83;45.97;102799.67;107655;1254;111979;-61
2023/02/13 12:06:38;;;;;;;28.60;13.50;;;;;;;7.52;46.70;102796.17;107652;1252;109799;-62
2023/02/13 12:09:14;;;;;;;22.10;11.60;;;;;;;7.19;47.75;102794.02;107646;1253;107661;-61
2023/02/13 12:11:50;;;;;;;25.20;12.00;;;;;;;6.79;48.85;102791.51;107629;1255;97836;-61
2023/02/13 12:14:26;;;;;;;19.50;10.80;;;;;;;6.57;49.38;102790.78;107621;1253;98492;-62